Valley City, Ohio
Current Conditions -  °F | °C
As of 2:07 AM on Wednesday 22 Oct 2014 (Local Time) from KCLE Reporting Station
Overcast Overcast  
Wind Chill: 42°   Ceiling: 1400
Heat Index: 48°   Visibility: 10mi
Dew Point: 44°   Wind: 14mph
Humidity: 86%   Direction: 20°NNE
Pressure: 30.15"   Gusts: NA
Location:  41.24°N, 81.93°W
Report Text: KCLE 220607Z 02012KT 10SM BKN014 OVC020 09/07 A3015 RMK AO2 T00890067 $
Loading
Personal Weather Stations






























Interactive Weather Map
Tropical Storm Tracking
New forecast layout! Learn more

10-Day Weather Forecast

Advertisements
Track Severe Weather on mobile